sensor_id;sensor_type;location;lat;lon;timestamp;P1;durP1;ratioP1;P2;durP2;ratioP2
69623;SDS011;56843;52.020;5.670;2023-04-01T00:01:14;3.30;;;1.23;;
69623;SDS011;56843;52.020;5.670;2023-04-01T00:02:46;3.33;;;1.30;;
69623;SDS011;56843;52.020;5.670;2023-04-01T00:04:17;2.90;;;1.20;;
69623;SDS011;56843;52.020;5.670;2023-04-01T00:05:48;3.65;;;1.30;;
69623;SDS011;56843;52.020;5.670;2023-04-01T00:07:19;3.70;;;1.35;;
69623;SDS011;56843;52.020;5.670;2023-04-01T00:08:49;3.57;;;1.37;;
69623;SDS011;56843;52.020;5.670;2023-04-01T00:10:20;2.43;;;1.10;;
69623;SDS011;56843;52.020;5.670;2023-04-01T00:11:50;3.83;;;1.40;;
69623;SDS011;56843;52.020;5.670;2023-04-01T00:13:21;3.40;;;1.20;;
69623;SDS011;56843;52.020;5.670;2023-04-01T00:14:52;5.68;;;1.70;;
69623;SDS011;56843;52.020;5.670;2023-04-01T00:16:22;3.33;;;1.50;;
69623;SDS011;56843;52.020;5.670;2023-04-01T00:17:53;4.87;;;1.47;;
69623;SDS011;56843;52.020;5.670;2023-04-01T00:19:24;3.60;;;1.40;;
69623;SDS011;56843;52.020;5.670;2023-04-01T00:20:55;4.82;;;1.35;;
69623;SDS011;56843;52.020;5.670;2023-04-01T00:22:25;4.33;;;1.60;;
69623;SDS011;56843;52.020;5.670;2023-04-01T00:23:56;3.90;;;1.77;;
69623;SDS011;56843;52.020;5.670;2023-04-01T00:25:27;6.90;;;1.60;;
69623;SDS011;56843;52.020;5.670;2023-04-01T00:26:58;4.18;;;1.55;;
69623;SDS011;56843;52.020;5.670;2023-04-01T00:28:29;8.20;;;1.60;;
69623;SDS011;56843;52.020;5.670;2023-04-01T00:30:00;5.93;;;2.03;;
69623;SDS011;56843;52.020;5.670;2023-04-01T00:31:31;5.03;;;1.95;;
69623;SDS011;56843;52.020;5.670;2023-04-01T00:33:02;6.40;;;1.93;;
69623;SDS011;56843;52.020;5.670;2023-04-01T00:34:33;5.60;;;1.95;;
69623;SDS011;56843;52.020;5.670;2023-04-01T00:36:07;8.60;;;2.10;;
69623;SDS011;56843;52.020;5.670;2023-04-01T00:37:39;5.07;;;2.00;;
69623;SDS011;56843;52.020;5.670;2023-04-01T00:39:09;7.20;;;2.50;;
69623;SDS011;56843;52.020;5.670;2023-04-01T00:40:42;5.17;;;1.93;;
69623;SDS011;56843;52.020;5.670;2023-04-01T00:42:14;5.80;;;2.53;;
69623;SDS011;56843;52.020;5.670;2023-04-01T00:43:46;6.03;;;2.10;;
69623;SDS011;56843;52.020;5.670;2023-04-01T00:47:06;5.20;;;2.40;;
69623;SDS011;56843;52.020;5.670;2023-04-01T00:48:38;4.22;;;2.10;;
69623;SDS011;56843;52.020;5.670;2023-04-01T00:50:11;6.80;;;2.33;;
69623;SDS011;56843;52.020;5.670;2023-04-01T00:51:42;6.60;;;2.47;;
69623;SDS011;56843;52.020;5.670;2023-04-01T00:53:16;5.50;;;2.30;;
69623;SDS011;56843;52.020;5.670;2023-04-01T00:54:50;7.75;;;2.40;;
69623;SDS011;56843;52.020;5.670;2023-04-01T00:56:33;5.18;;;2.40;;
69623;SDS011;56843;52.020;5.670;2023-04-01T00:58:07;7.03;;;3.05;;
69623;SDS011;56843;52.020;5.670;2023-04-01T00:59:47;7.15;;;2.22;;
69623;SDS011;56843;52.020;5.670;2023-04-01T01:03:38;8.63;;;2.40;;
69623;SDS011;56843;52.020;5.670;2023-04-01T01:05:11;6.30;;;2.63;;
69623;SDS011;56843;52.020;5.670;2023-04-01T01:06:46;11.50;;;3.33;;
69623;SDS011;56843;52.020;5.670;2023-04-01T01:09:25;7.15;;;2.72;;
69623;SDS011;56843;52.020;5.670;2023-04-01T01:10:44;6.75;;;2.50;;
69623;SDS011;56843;52.020;5.670;2023-04-01T01:12:29;10.18;;;2.78;;
69623;SDS011;56843;52.020;5.670;2023-04-01T01:15:58;9.33;;;3.00;;
69623;SDS011;56843;52.020;5.670;2023-04-01T01:17:48;8.45;;;2.88;;
69623;SDS011;56843;52.020;5.670;2023-04-01T01:21:32;9.65;;;4.18;;
69623;SDS011;56843;52.020;5.670;2023-04-01T01:23:28;9.07;;;4.32;;
69623;SDS011;56843;52.020;5.670;2023-04-01T01:32:04;8.07;;;3.00;;
69623;SDS011;56843;52.020;5.670;2023-04-01T01:35:31;8.88;;;3.15;;
69623;SDS011;56843;52.020;5.670;2023-04-01T01:37:05;11.57;;;3.60;;
69623;SDS011;56843;52.020;5.670;2023-04-01T01:38:41;11.38;;;4.43;;
69623;SDS011;56843;52.020;5.670;2023-04-01T01:40:11;10.30;;;3.53;;
69623;SDS011;56843;52.020;5.670;2023-04-01T01:41:45;11.45;;;4.22;;
69623;SDS011;56843;52.020;5.670;2023-04-01T01:43:21;12.18;;;3.78;;
69623;SDS011;56843;52.020;5.670;2023-04-01T01:44:55;11.73;;;4.18;;
69623;SDS011;56843;52.020;5.670;2023-04-01T01:46:29;9.60;;;3.28;;
69623;SDS011;56843;52.020;5.670;2023-04-01T01:48:01;18.33;;;4.95;;
69623;SDS011;56843;52.020;5.670;2023-04-01T01:49:35;11.40;;;3.75;;
69623;SDS011;56843;52.020;5.670;2023-04-01T01:51:08;9.93;;;4.72;;
69623;SDS011;56843;52.020;5.670;2023-04-01T01:52:38;10.67;;;3.63;;
69623;SDS011;56843;52.020;5.670;2023-04-01T01:54:27;10.60;;;3.42;;
69623;SDS011;56843;52.020;5.670;2023-04-01T01:55:58;8.07;;;3.47;;
69623;SDS011;56843;52.020;5.670;2023-04-01T01:57:30;10.10;;;3.27;;
69623;SDS011;56843;52.020;5.670;2023-04-01T01:59:05;13.40;;;3.40;;
69623;SDS011;56843;52.020;5.670;2023-04-01T02:00:41;11.73;;;3.60;;
69623;SDS011;56843;52.020;5.670;2023-04-01T02:02:16;16.38;;;5.22;;
69623;SDS011;56843;52.020;5.670;2023-04-01T02:03:47;18.67;;;4.65;;
69623;SDS011;56843;52.020;5.670;2023-04-01T02:05:21;14.68;;;4.30;;
69623;SDS011;56843;52.020;5.670;2023-04-01T02:07:01;10.32;;;4.45;;
69623;SDS011;56843;52.020;5.670;2023-04-01T02:08:35;13.63;;;4.57;;
69623;SDS011;56843;52.020;5.670;2023-04-01T02:10:10;9.63;;;3.58;;
69623;SDS011;56843;52.020;5.670;2023-04-01T02:11:57;11.93;;;3.40;;
69623;SDS011;56843;52.020;5.670;2023-04-01T02:13:43;10.05;;;3.70;;
69623;SDS011;56843;52.020;5.670;2023-04-01T02:15:24;8.55;;;2.78;;
69623;SDS011;56843;52.020;5.670;2023-04-01T02:16:57;11.30;;;4.20;;
69623;SDS011;56843;52.020;5.670;2023-04-01T02:18:33;9.00;;;3.45;;
69623;SDS011;56843;52.020;5.670;2023-04-01T02:20:09;14.20;;;3.60;;
69623;SDS011;56843;52.020;5.670;2023-04-01T02:21:43;10.88;;;3.58;;
69623;SDS011;56843;52.020;5.670;2023-04-01T02:23:15;14.18;;;4.20;;
69623;SDS011;56843;52.020;5.670;2023-04-01T02:24:45;23.90;;;3.60;;
69623;SDS011;56843;52.020;5.670;2023-04-01T02:26:17;12.23;;;3.42;;
69623;SDS011;56843;52.020;5.670;2023-04-01T02:27:49;14.18;;;3.17;;
69623;SDS011;56843;52.020;5.670;2023-04-01T02:29:20;20.98;;;4.65;;
69623;SDS011;56843;52.020;5.670;2023-04-01T02:30:53;11.87;;;3.30;;
69623;SDS011;56843;52.020;5.670;2023-04-01T02:32:24;8.98;;;3.20;;
69623;SDS011;56843;52.020;5.670;2023-04-01T02:33:55;10.85;;;2.75;;
69623;SDS011;56843;52.020;5.670;2023-04-01T02:35:26;18.25;;;2.80;;
69623;SDS011;56843;52.020;5.670;2023-04-01T02:36:57;10.07;;;2.87;;
69623;SDS011;56843;52.020;5.670;2023-04-01T02:38:27;9.73;;;2.42;;
69623;SDS011;56843;52.020;5.670;2023-04-01T02:40:02;9.13;;;2.60;;
69623;SDS011;56843;52.020;5.670;2023-04-01T02:41:40;8.07;;;2.65;;
69623;SDS011;56843;52.020;5.670;2023-04-01T02:43:11;11.13;;;2.88;;
69623;SDS011;56843;52.020;5.670;2023-04-01T02:44:42;12.98;;;2.85;;
69623;SDS011;56843;52.020;5.670;2023-04-01T02:46:12;5.80;;;2.00;;
69623;SDS011;56843;52.020;5.670;2023-04-01T02:47:43;9.40;;;3.37;;
69623;SDS011;56843;52.020;5.670;2023-04-01T02:49:13;10.10;;;2.35;;
69623;SDS011;56843;52.020;5.670;2023-04-01T02:50:44;11.97;;;2.70;;
69623;SDS011;56843;52.020;5.670;2023-04-01T02:52:15;8.73;;;2.60;;
69623;SDS011;56843;52.020;5.670;2023-04-01T02:53:45;10.10;;;2.50;;
69623;SDS011;56843;52.020;5.670;2023-04-01T02:55:15;5.73;;;2.23;;
69623;SDS011;56843;52.020;5.670;2023-04-01T02:56:46;7.47;;;2.80;;
69623;SDS011;56843;52.020;5.670;2023-04-01T02:58:17;9.02;;;2.83;;
69623;SDS011;56843;52.020;5.670;2023-04-01T02:59:48;10.27;;;3.10;;
69623;SDS011;56843;52.020;5.670;2023-04-01T03:01:18;9.30;;;2.93;;
69623;SDS011;56843;52.020;5.670;2023-04-01T03:02:49;5.82;;;2.28;;
69623;SDS011;56843;52.020;5.670;2023-04-01T03:04:20;10.00;;;2.60;;
69623;SDS011;56843;52.020;5.670;2023-04-01T03:05:50;9.52;;;2.20;;
69623;SDS011;56843;52.020;5.670;2023-04-01T03:07:23;8.30;;;2.42;;
69623;SDS011;56843;52.020;5.670;2023-04-01T03:08:53;7.27;;;2.73;;
69623;SDS011;56843;52.020;5.670;2023-04-01T03:10:24;6.68;;;2.28;;
69623;SDS011;56843;52.020;5.670;2023-04-01T03:11:54;8.30;;;2.47;;
69623;SDS011;56843;52.020;5.670;2023-04-01T03:13:25;6.13;;;2.28;;
69623;SDS011;56843;52.020;5.670;2023-04-01T03:14:56;9.07;;;2.60;;
69623;SDS011;56843;52.020;5.670;2023-04-01T03:16:26;6.22;;;2.20;;
69623;SDS011;56843;52.020;5.670;2023-04-01T03:17:57;9.40;;;2.30;;
69623;SDS011;56843;52.020;5.670;2023-04-01T03:19:28;7.07;;;2.45;;
69623;SDS011;56843;52.020;5.670;2023-04-01T03:21:15;8.93;;;2.60;;
69623;SDS011;56843;52.020;5.670;2023-04-01T03:22:47;7.27;;;2.40;;
69623;SDS011;56843;52.020;5.670;2023-04-01T03:24:19;5.90;;;2.20;;
69623;SDS011;56843;52.020;5.670;2023-04-01T03:25:51;7.15;;;2.20;;
69623;SDS011;56843;52.020;5.670;2023-04-01T03:27:21;8.73;;;2.70;;
69623;SDS011;56843;52.020;5.670;2023-04-01T03:28:52;7.70;;;2.70;;
69623;SDS011;56843;52.020;5.670;2023-04-01T03:30:23;7.20;;;3.40;;
69623;SDS011;56843;52.020;5.670;2023-04-01T03:31:54;8.48;;;2.85;;
69623;SDS011;56843;52.020;5.670;2023-04-01T03:33:28;8.32;;;2.75;;
69623;SDS011;56843;52.020;5.670;2023-04-01T03:34:58;11.05;;;4.10;;
69623;SDS011;56843;52.020;5.670;2023-04-01T03:36:29;10.47;;;4.17;;
69623;SDS011;56843;52.020;5.670;2023-04-01T03:38:00;17.63;;;6.05;;
69623;SDS011;56843;52.020;5.670;2023-04-01T03:39:30;10.73;;;4.77;;
69623;SDS011;56843;52.020;5.670;2023-04-01T03:41:01;8.48;;;3.30;;
69623;SDS011;56843;52.020;5.670;2023-04-01T03:42:33;9.13;;;3.05;;
69623;SDS011;56843;52.020;5.670;2023-04-01T03:44:04;10.02;;;3.97;;
69623;SDS011;56843;52.020;5.670;2023-04-01T03:45:34;9.73;;;3.33;;
69623;SDS011;56843;52.020;5.670;2023-04-01T03:47:05;13.65;;;4.63;;
69623;SDS011;56843;52.020;5.670;2023-04-01T03:48:36;7.70;;;3.43;;
69623;SDS011;56843;52.020;5.670;2023-04-01T03:50:07;7.03;;;3.65;;
69623;SDS011;56843;52.020;5.670;2023-04-01T03:51:39;10.10;;;3.80;;
69623;SDS011;56843;52.020;5.670;2023-04-01T03:53:11;8.02;;;2.95;;
69623;SDS011;56843;52.020;5.670;2023-04-01T03:54:45;6.60;;;2.80;;
69623;SDS011;56843;52.020;5.670;2023-04-01T03:56:16;5.63;;;2.13;;
69623;SDS011;56843;52.020;5.670;2023-04-01T03:57:46;6.00;;;2.37;;
69623;SDS011;56843;52.020;5.670;2023-04-01T03:59:22;6.78;;;2.58;;
69623;SDS011;56843;52.020;5.670;2023-04-01T04:00:52;8.13;;;2.60;;
69623;SDS011;56843;52.020;5.670;2023-04-01T04:02:23;10.17;;;4.43;;
69623;SDS011;56843;52.020;5.670;2023-04-01T04:03:53;9.23;;;3.70;;
69623;SDS011;56843;52.020;5.670;2023-04-01T04:05:26;9.10;;;4.18;;
69623;SDS011;56843;52.020;5.670;2023-04-01T04:06:56;9.32;;;4.53;;
69623;SDS011;56843;52.020;5.670;2023-04-01T04:08:28;14.45;;;5.43;;
69623;SDS011;56843;52.020;5.670;2023-04-01T04:09:58;7.53;;;3.27;;
69623;SDS011;56843;52.020;5.670;2023-04-01T04:11:30;14.17;;;6.80;;
69623;SDS011;56843;52.020;5.670;2023-04-01T04:13:01;20.38;;;11.30;;
69623;SDS011;56843;52.020;5.670;2023-04-01T04:14:33;13.50;;;6.80;;
69623;SDS011;56843;52.020;5.670;2023-04-01T04:16:04;16.45;;;6.85;;
69623;SDS011;56843;52.020;5.670;2023-04-01T04:17:36;10.05;;;5.30;;
69623;SDS011;56843;52.020;5.670;2023-04-01T04:19:07;14.63;;;5.97;;
69623;SDS011;56843;52.020;5.670;2023-04-01T04:20:43;13.65;;;5.15;;
69623;SDS011;56843;52.020;5.670;2023-04-01T04:22:16;10.25;;;3.38;;
69623;SDS011;56843;52.020;5.670;2023-04-01T04:23:46;9.80;;;4.33;;
69623;SDS011;56843;52.020;5.670;2023-04-01T04:25:19;14.18;;;7.13;;
69623;SDS011;56843;52.020;5.670;2023-04-01T04:26:50;22.40;;;12.00;;
69623;SDS011;56843;52.020;5.670;2023-04-01T04:28:20;12.07;;;5.83;;
69623;SDS011;56843;52.020;5.670;2023-04-01T04:29:51;15.83;;;8.33;;
69623;SDS011;56843;52.020;5.670;2023-04-01T04:31:22;13.95;;;6.10;;
69623;SDS011;56843;52.020;5.670;2023-04-01T04:32:55;15.50;;;7.90;;
69623;SDS011;56843;52.020;5.670;2023-04-01T04:34:26;13.93;;;7.20;;
69623;SDS011;56843;52.020;5.670;2023-04-01T04:35:56;14.87;;;7.20;;
69623;SDS011;56843;52.020;5.670;2023-04-01T04:37:28;19.67;;;8.13;;
69623;SDS011;56843;52.020;5.670;2023-04-01T04:38:58;15.67;;;8.07;;
69623;SDS011;56843;52.020;5.670;2023-04-01T04:40:32;11.25;;;6.03;;
69623;SDS011;56843;52.020;5.670;2023-04-01T04:42:03;12.60;;;6.03;;
69623;SDS011;56843;52.020;5.670;2023-04-01T04:43:34;9.63;;;5.00;;
69623;SDS011;56843;52.020;5.670;2023-04-01T04:45:04;11.10;;;4.72;;
69623;SDS011;56843;52.020;5.670;2023-04-01T04:46:35;11.17;;;6.27;;
69623;SDS011;56843;52.020;5.670;2023-04-01T04:48:16;8.18;;;3.95;;
69623;SDS011;56843;52.020;5.670;2023-04-01T04:49:49;7.45;;;3.25;;
69623;SDS011;56843;52.020;5.670;2023-04-01T04:51:20;9.60;;;3.60;;
69623;SDS011;56843;52.020;5.670;2023-04-01T04:52:51;7.97;;;3.53;;
69623;SDS011;56843;52.020;5.670;2023-04-01T04:54:22;5.68;;;2.50;;
69623;SDS011;56843;52.020;5.670;2023-04-01T04:56:01;6.43;;;2.97;;
69623;SDS011;56843;52.020;5.670;2023-04-01T04:57:47;6.40;;;2.40;;
69623;SDS011;56843;52.020;5.670;2023-04-01T04:59:17;4.90;;;2.15;;
69623;SDS011;56843;52.020;5.670;2023-04-01T05:01:04;5.37;;;2.23;;
69623;SDS011;56843;52.020;5.670;2023-04-01T05:02:39;5.70;;;2.10;;
69623;SDS011;56843;52.020;5.670;2023-04-01T05:04:10;8.02;;;2.42;;
69623;SDS011;56843;52.020;5.670;2023-04-01T05:05:47;4.73;;;2.23;;
69623;SDS011;56843;52.020;5.670;2023-04-01T05:07:19;5.25;;;2.38;;
69623;SDS011;56843;52.020;5.670;2023-04-01T05:08:50;7.18;;;2.17;;
69623;SDS011;56843;52.020;5.670;2023-04-01T05:10:20;4.93;;;2.03;;
69623;SDS011;56843;52.020;5.670;2023-04-01T05:11:51;6.43;;;2.43;;
69623;SDS011;56843;52.020;5.670;2023-04-01T05:13:22;7.22;;;2.13;;
69623;SDS011;56843;52.020;5.670;2023-04-01T05:14:53;6.38;;;2.30;;
69623;SDS011;56843;52.020;5.670;2023-04-01T05:16:24;11.27;;;2.67;;
69623;SDS011;56843;52.020;5.670;2023-04-01T05:17:54;5.63;;;2.30;;
69623;SDS011;56843;52.020;5.670;2023-04-01T05:19:24;5.37;;;2.00;;
69623;SDS011;56843;52.020;5.670;2023-04-01T05:20:55;6.27;;;2.27;;
69623;SDS011;56843;52.020;5.670;2023-04-01T05:22:26;6.70;;;2.50;;
69623;SDS011;56843;52.020;5.670;2023-04-01T05:23:57;5.65;;;2.03;;
69623;SDS011;56843;52.020;5.670;2023-04-01T05:25:28;4.63;;;1.90;;
69623;SDS011;56843;52.020;5.670;2023-04-01T05:26:59;9.07;;;2.23;;
69623;SDS011;56843;52.020;5.670;2023-04-01T05:28:31;4.80;;;2.22;;
69623;SDS011;56843;52.020;5.670;2023-04-01T05:30:01;5.47;;;2.37;;
69623;SDS011;56843;52.020;5.670;2023-04-01T05:31:51;5.00;;;2.10;;
69623;SDS011;56843;52.020;5.670;2023-04-01T05:33:22;5.18;;;2.03;;
69623;SDS011;56843;52.020;5.670;2023-04-01T05:34:53;6.03;;;2.60;;
69623;SDS011;56843;52.020;5.670;2023-04-01T05:36:23;4.35;;;1.83;;
69623;SDS011;56843;52.020;5.670;2023-04-01T05:37:55;4.50;;;1.95;;
69623;SDS011;56843;52.020;5.670;2023-04-01T05:39:25;4.50;;;1.90;;
69623;SDS011;56843;52.020;5.670;2023-04-01T05:41:00;7.73;;;2.33;;
69623;SDS011;56843;52.020;5.670;2023-04-01T05:42:33;4.68;;;1.90;;
69623;SDS011;56843;52.020;5.670;2023-04-01T05:44:03;5.65;;;2.15;;
69623;SDS011;56843;52.020;5.670;2023-04-01T05:45:43;5.93;;;2.10;;
69623;SDS011;56843;52.020;5.670;2023-04-01T05:47:17;4.70;;;2.20;;
69623;SDS011;56843;52.020;5.670;2023-04-01T05:48:47;5.82;;;2.50;;
69623;SDS011;56843;52.020;5.670;2023-04-01T05:50:18;5.20;;;2.20;;
69623;SDS011;56843;52.020;5.670;2023-04-01T05:51:49;5.15;;;2.10;;
69623;SDS011;56843;52.020;5.670;2023-04-01T05:53:20;5.13;;;2.20;;
69623;SDS011;56843;52.020;5.670;2023-04-01T05:54:51;5.03;;;2.00;;
69623;SDS011;56843;52.020;5.670;2023-04-01T05:56:21;7.28;;;2.60;;
69623;SDS011;56843;52.020;5.670;2023-04-01T05:57:55;3.97;;;1.60;;
69623;SDS011;56843;52.020;5.670;2023-04-01T05:59:25;5.53;;;2.20;;
69623;SDS011;56843;52.020;5.670;2023-04-01T06:01:06;5.70;;;2.35;;
69623;SDS011;56843;52.020;5.670;2023-04-01T06:02:38;5.80;;;2.47;;
69623;SDS011;56843;52.020;5.670;2023-04-01T06:04:12;5.57;;;2.00;;
69623;SDS011;56843;52.020;5.670;2023-04-01T06:05:45;5.50;;;2.03;;
69623;SDS011;56843;52.020;5.670;2023-04-01T06:07:16;5.53;;;2.30;;
69623;SDS011;56843;52.020;5.670;2023-04-01T06:08:48;4.55;;;1.70;;
69623;SDS011;56843;52.020;5.670;2023-04-01T06:10:19;4.75;;;1.80;;
69623;SDS011;56843;52.020;5.670;2023-04-01T06:17:55;4.50;;;1.43;;
69623;SDS011;56843;52.020;5.670;2023-04-01T06:20:03;4.77;;;1.50;;
69623;SDS011;56843;52.020;5.670;2023-04-01T06:23:29;4.75;;;1.58;;
69623;SDS011;56843;52.020;5.670;2023-04-01T06:30:47;5.38;;;1.58;;
69623;SDS011;56843;52.020;5.670;2023-04-01T06:34:30;4.13;;;1.63;;
69623;SDS011;56843;52.020;5.670;2023-04-01T06:36:15;3.40;;;1.23;;
69623;SDS011;56843;52.020;5.670;2023-04-01T06:43:13;3.80;;;1.47;;
69623;SDS011;56843;52.020;5.670;2023-04-01T06:47:55;3.47;;;1.25;;
69623;SDS011;56843;52.020;5.670;2023-04-01T06:52:31;3.30;;;1.25;;
69623;SDS011;56843;52.020;5.670;2023-04-01T06:54:34;3.72;;;1.40;;
69623;SDS011;56843;52.020;5.670;2023-04-01T06:57:00;3.15;;;1.30;;
69623;SDS011;56843;52.020;5.670;2023-04-01T06:58:46;3.47;;;1.17;;
69623;SDS011;56843;52.020;5.670;2023-04-01T07:00:27;2.83;;;1.10;;
69623;SDS011;56843;52.020;5.670;2023-04-01T07:03:41;3.30;;;1.00;;
69623;SDS011;56843;52.020;5.670;2023-04-01T07:05:15;4.40;;;1.77;;
69623;SDS011;56843;52.020;5.670;2023-04-01T07:06:56;7.10;;;1.70;;
69623;SDS011;56843;52.020;5.670;2023-04-01T07:08:29;12.95;;;2.83;;
69623;SDS011;56843;52.020;5.670;2023-04-01T07:10:05;26.20;;;2.75;;
69623;SDS011;56843;52.020;5.670;2023-04-01T07:12:29;26.15;;;2.53;;
69623;SDS011;56843;52.020;5.670;2023-04-01T07:14:37;11.18;;;2.08;;
69623;SDS011;56843;52.020;5.670;2023-04-01T07:16:24;17.02;;;2.65;;
69623;SDS011;56843;52.020;5.670;2023-04-01T07:17:59;11.77;;;1.67;;
69623;SDS011;56843;52.020;5.670;2023-04-01T07:19:40;8.60;;;2.37;;
69623;SDS011;56843;52.020;5.670;2023-04-01T07:23:26;4.88;;;1.40;;
69623;SDS011;56843;52.020;5.670;2023-04-01T07:25:38;5.13;;;1.52;;
69623;SDS011;56843;52.020;5.670;2023-04-01T07:27:52;4.82;;;1.30;;
69623;SDS011;56843;52.020;5.670;2023-04-01T07:29:26;3.33;;;0.90;;
69623;SDS011;56843;52.020;5.670;2023-04-01T07:33:22;3.13;;;1.00;;
69623;SDS011;56843;52.020;5.670;2023-04-01T07:36:45;4.13;;;1.20;;
69623;SDS011;56843;52.020;5.670;2023-04-01T07:50:21;1.80;;;0.70;;
69623;SDS011;56843;52.020;5.670;2023-04-01T07:52:11;1.85;;;0.70;;
69623;SDS011;56843;52.020;5.670;2023-04-01T07:55:50;1.80;;;0.70;;
69623;SDS011;56843;52.020;5.670;2023-04-01T08:01:03;2.58;;;0.90;;
69623;SDS011;56843;52.020;5.670;2023-04-01T08:05:30;2.50;;;1.00;;
69623;SDS011;56843;52.020;5.670;2023-04-01T08:07:54;2.92;;;0.82;;
69623;SDS011;56843;52.020;5.670;2023-04-01T08:16:37;1.88;;;0.60;;
69623;SDS011;56843;52.020;5.670;2023-04-01T08:22:15;1.70;;;0.80;;
69623;SDS011;56843;52.020;5.670;2023-04-01T08:23:53;2.78;;;1.10;;
69623;SDS011;56843;52.020;5.670;2023-04-01T08:25:28;2.03;;;0.90;;
69623;SDS011;56843;52.020;5.670;2023-04-01T08:27:03;2.13;;;0.85;;
69623;SDS011;56843;52.020;5.670;2023-04-01T08:28:44;1.20;;;0.50;;
69623;SDS011;56843;52.020;5.670;2023-04-01T08:30:23;3.92;;;0.90;;
69623;SDS011;56843;52.020;5.670;2023-04-01T08:32:15;4.05;;;1.33;;
69623;SDS011;56843;52.020;5.670;2023-04-01T08:33:52;2.95;;;0.90;;
69623;SDS011;56843;52.020;5.670;2023-04-01T08:35:37;2.20;;;1.00;;
69623;SDS011;56843;52.020;5.670;2023-04-01T08:37:11;1.83;;;0.80;;
69623;SDS011;56843;52.020;5.670;2023-04-01T08:39:06;1.95;;;0.90;;
69623;SDS011;56843;52.020;5.670;2023-04-01T08:43:25;2.20;;;1.03;;
69623;SDS011;56843;52.020;5.670;2023-04-01T08:56:17;6.88;;;1.40;;
69623;SDS011;56843;52.020;5.670;2023-04-01T09:06:32;5.10;;;1.67;;
69623;SDS011;56843;52.020;5.670;2023-04-01T09:08:48;4.25;;;1.10;;
69623;SDS011;56843;52.020;5.670;2023-04-01T09:18:20;5.00;;;1.42;;
69623;SDS011;56843;52.020;5.670;2023-04-01T09:19:50;3.63;;;1.30;;
69623;SDS011;56843;52.020;5.670;2023-04-01T09:21:27;2.27;;;1.03;;
69623;SDS011;56843;52.020;5.670;2023-04-01T09:23:55;4.88;;;1.50;;
69623;SDS011;56843;52.020;5.670;2023-04-01T09:25:27;7.15;;;1.70;;
69623;SDS011;56843;52.020;5.670;2023-04-01T09:27:23;4.05;;;1.50;;
69623;SDS011;56843;52.020;5.670;2023-04-01T09:29:16;3.85;;;1.40;;
69623;SDS011;56843;52.020;5.670;2023-04-01T09:31:32;3.38;;;1.15;;
69623;SDS011;56843;52.020;5.670;2023-04-01T09:37:23;5.78;;;1.63;;
69623;SDS011;56843;52.020;5.670;2023-04-01T09:45:04;3.42;;;1.30;;
69623;SDS011;56843;52.020;5.670;2023-04-01T09:54:32;5.77;;;1.60;;
69623;SDS011;56843;52.020;5.670;2023-04-01T10:01:54;4.70;;;1.92;;
69623;SDS011;56843;52.020;5.670;2023-04-01T10:23:21;6.47;;;2.00;;
69623;SDS011;56843;52.020;5.670;2023-04-01T10:34:54;4.43;;;1.85;;
69623;SDS011;56843;52.020;5.670;2023-04-01T10:51:25;6.87;;;2.00;;
69623;SDS011;56843;52.020;5.670;2023-04-01T10:55:31;4.78;;;1.88;;
69623;SDS011;56843;52.020;5.670;2023-04-01T11:08:53;8.48;;;1.98;;
69623;SDS011;56843;52.020;5.670;2023-04-01T11:12:51;4.87;;;1.80;;
69623;SDS011;56843;52.020;5.670;2023-04-01T11:31:32;5.80;;;2.05;;
69623;SDS011;56843;52.020;5.670;2023-04-01T11:37:19;4.00;;;1.35;;
69623;SDS011;56843;52.020;5.670;2023-04-01T11:41:36;5.07;;;1.45;;
69623;SDS011;56843;52.020;5.670;2023-04-01T11:46:01;4.65;;;1.55;;
69623;SDS011;56843;52.020;5.670;2023-04-01T11:47:56;6.20;;;1.70;;
69623;SDS011;56843;52.020;5.670;2023-04-01T11:55:35;2.30;;;1.00;;
69623;SDS011;56843;52.020;5.670;2023-04-01T12:05:03;2.92;;;1.30;;
69623;SDS011;56843;52.020;5.670;2023-04-01T12:10:33;4.45;;;1.10;;
69623;SDS011;56843;52.020;5.670;2023-04-01T12:14:09;2.93;;;1.10;;
69623;SDS011;56843;52.020;5.670;2023-04-01T12:15:54;3.38;;;1.30;;
69623;SDS011;56843;52.020;5.670;2023-04-01T12:21:35;6.00;;;1.50;;
69623;SDS011;56843;52.020;5.670;2023-04-01T12:30:46;3.60;;;1.30;;
69623;SDS011;56843;52.020;5.670;2023-04-01T12:32:31;4.03;;;1.45;;
69623;SDS011;56843;52.020;5.670;2023-04-01T12:36:40;3.30;;;1.42;;
69623;SDS011;56843;52.020;5.670;2023-04-01T12:40:24;3.47;;;1.50;;
69623;SDS011;56843;52.020;5.670;2023-04-01T12:49:15;3.53;;;1.40;;
69623;SDS011;56843;52.020;5.670;2023-04-01T13:00:27;5.90;;;1.27;;
69623;SDS011;56843;52.020;5.670;2023-04-01T13:02:20;7.90;;;1.85;;
69623;SDS011;56843;52.020;5.670;2023-04-01T13:06:32;3.63;;;1.47;;
69623;SDS011;56843;52.020;5.670;2023-04-01T13:19:40;3.35;;;1.40;;
69623;SDS011;56843;52.020;5.670;2023-04-01T13:21:19;3.90;;;1.30;;
69623;SDS011;56843;52.020;5.670;2023-04-01T13:23:32;5.63;;;1.13;;
69623;SDS011;56843;52.020;5.670;2023-04-01T13:25:22;4.07;;;1.30;;
69623;SDS011;56843;52.020;5.670;2023-04-01T13:28:51;3.10;;;1.30;;
69623;SDS011;56843;52.020;5.670;2023-04-01T13:35:57;4.60;;;1.50;;
69623;SDS011;56843;52.020;5.670;2023-04-01T13:43:26;3.77;;;1.20;;
69623;SDS011;56843;52.020;5.670;2023-04-01T13:45:15;3.40;;;1.23;;
69623;SDS011;56843;52.020;5.670;2023-04-01T13:47:33;2.90;;;1.10;;
69623;SDS011;56843;52.020;5.670;2023-04-01T13:54:22;3.15;;;0.90;;
69623;SDS011;56843;52.020;5.670;2023-04-01T13:56:08;3.53;;;1.10;;
69623;SDS011;56843;52.020;5.670;2023-04-01T13:57:52;3.78;;;0.95;;
69623;SDS011;56843;52.020;5.670;2023-04-01T14:01:13;11.27;;;2.22;;
69623;SDS011;56843;52.020;5.670;2023-04-01T14:02:59;15.80;;;2.17;;
69623;SDS011;56843;52.020;5.670;2023-04-01T14:15:57;12.25;;;1.90;;
69623;SDS011;56843;52.020;5.670;2023-04-01T14:34:10;10.95;;;3.00;;
69623;SDS011;56843;52.020;5.670;2023-04-01T14:40:53;6.33;;;2.10;;
69623;SDS011;56843;52.020;5.670;2023-04-01T14:51:38;7.72;;;2.60;;
69623;SDS011;56843;52.020;5.670;2023-04-01T14:54:55;6.22;;;1.60;;
69623;SDS011;56843;52.020;5.670;2023-04-01T14:56:37;11.88;;;1.45;;
69623;SDS011;56843;52.020;5.670;2023-04-01T14:58:11;5.73;;;1.93;;
69623;SDS011;56843;52.020;5.670;2023-04-01T14:59:48;4.47;;;1.53;;
69623;SDS011;56843;52.020;5.670;2023-04-01T15:03:16;6.43;;;1.60;;
69623;SDS011;56843;52.020;5.670;2023-04-01T15:04:54;4.45;;;1.60;;
69623;SDS011;56843;52.020;5.670;2023-04-01T15:17:48;4.35;;;1.60;;
69623;SDS011;56843;52.020;5.670;2023-04-01T15:19:41;4.72;;;1.50;;
69623;SDS011;56843;52.020;5.670;2023-04-01T15:43:57;4.05;;;1.40;;
69623;SDS011;56843;52.020;5.670;2023-04-01T15:50:56;5.93;;;1.67;;
69623;SDS011;56843;52.020;5.670;2023-04-01T15:54:32;4.30;;;1.40;;
69623;SDS011;56843;52.020;5.670;2023-04-01T15:56:26;6.30;;;1.50;;
69623;SDS011;56843;52.020;5.670;2023-04-01T15:58:17;5.20;;;1.40;;
69623;SDS011;56843;52.020;5.670;2023-04-01T16:02:02;4.07;;;1.20;;
69623;SDS011;56843;52.020;5.670;2023-04-01T16:18:10;4.82;;;1.30;;
69623;SDS011;56843;52.020;5.670;2023-04-01T16:20:22;3.15;;;1.10;;
69623;SDS011;56843;52.020;5.670;2023-04-01T16:22:07;4.43;;;1.50;;
69623;SDS011;56843;52.020;5.670;2023-04-01T16:23:50;6.88;;;1.45;;
69623;SDS011;56843;52.020;5.670;2023-04-01T16:28:56;4.90;;;1.90;;
69623;SDS011;56843;52.020;5.670;2023-04-01T16:30:41;5.87;;;2.00;;
69623;SDS011;56843;52.020;5.670;2023-04-01T16:32:29;7.85;;;1.60;;
69623;SDS011;56843;52.020;5.670;2023-04-01T16:34:17;4.80;;;1.60;;
69623;SDS011;56843;52.020;5.670;2023-04-01T16:39:52;5.90;;;1.60;;
69623;SDS011;56843;52.020;5.670;2023-04-01T16:41:36;5.97;;;2.20;;
69623;SDS011;56843;52.020;5.670;2023-04-01T16:46:33;9.00;;;1.80;;
69623;SDS011;56843;52.020;5.670;2023-04-01T16:48:15;10.82;;;1.58;;
69623;SDS011;56843;52.020;5.670;2023-04-01T16:50:14;3.33;;;1.10;;